ADDS METAR Data INFO
IDs: Format: Raw Decoded Include TAF

Data at: 1322 UTC 11 Dec 2017

KBRD 111253Z AUTO 20005KT 5SM BR SCT013 BKN018 OVC035 M02/M04 A2969 RMK AO2 SNE44 SLP072 P0004 T10221039
KBRD 111240Z AUTO 21005KT 3SM -SN BR SCT010 BKN015 OVC020 M02/M03 A2969 RMK AO2 P0004 T10221033
KBRD 111233Z AUTO 22004KT 1 1/2SM -SN BR SCT010 BKN015 OVC020 M02/M03 A2969 RMK AO2 P0004 T10221033
KBRD 111220Z AUTO 21004KT 1/2SM SN FZFG BKN012 OVC022 M02/M03 A2969 RMK AO2 P0003 T10221033
KBRD 111208Z AUTO 20004KT 1/2SM SN FZFG BKN017 OVC030 M02/M03 A2969 RMK AO2 P0002 T10221033
KBRD 111158Z AUTO 21003KT 1 1/4SM -SN BR BKN019 OVC032 M02/M03 A2969 RMK AO2 P0000 T10221033
KBRD 111153Z AUTO 20003KT 2SM -SN BR FEW018 BKN023 OVC032 M02/M04 A2969 RMK AO2 SNB13 SLP072 P0000 60005 70006 T10221039 11022 21044 55016
KBRD 111150Z AUTO 20003KT 2SM -SN BR SCT018 BKN023 OVC032 M02/M04 A2969 RMK AO2 SNB13 P0000
KBRD 111140Z AUTO 20004KT 1 1/4SM -SN BR BKN016 OVC021 M02/M04 A2969 RMK AO2 SNB13 P0000 T10221039
KBRD 111126Z AUTO 22007KT 2 1/2SM -SN BR FEW012 BKN019 OVC025 M02/M04 A2970 RMK AO2 SNB13 P0000 T10221039
KBRD 111111Z AUTO 22005KT 5SM BR BKN025 OVC032 M02/M04 A2969 RMK AO2 T10221039
KBRD 111053Z AUTO 20006KT 6SM BR BKN035 OVC043 M02/M04 A2969 RMK AO2 SNB29E47 SLP071 P0000 T10221039
KBRD 110953Z AUTO 20007KT 6SM BR FEW007 OVC048 M03/M04 A2971 RMK AO2 SLP079 T10281044
KBRD 110938Z AUTO 18008KT 6SM BR FEW007 SCT023 OVC048 M03/M04 A2971 RMK AO2 T10281044
KBRD 110927Z AUTO 18009KT 7SM SCT007 BKN023 OVC048 M03/M04 A2972 RMK AO2 T10281044
KBRD 110853Z AUTO 17007KT 7SM OVC007 M03/M05 A2974 RMK AO2 SLP088 60005 T10331050 58022
KBRD 110802Z AUTO 19006KT 7SM BKN008 OVC012 M03/M05 A2978 RMK AO2 CIG 007V012 T10331050
KBRD 110753Z AUTO 19006KT 6SM BR OVC012 M03/M05 A2979 RMK AO2 SNE28 SLP105 P0001 T10331050
KBRD 110750Z AUTO 19006KT 6SM BR FEW008 OVC014 M03/M05 A2979 RMK AO2 SNE28 P0001
KBRD 110742Z AUTO 17007KT 6SM BR FEW008 OVC016 M03/M06 A2978 RMK AO2 SNE28 P0001 T10331056
KBRD 110732Z AUTO 17005KT 4SM BR OVC016 M04/M06 A2978 RMK AO2 SNE28 P0001 T10391056
KBRD 110723Z AUTO 17006KT 2 1/2SM -SN BR BKN016 OVC021 M04/M06 A2979 RMK AO2 P0001 T10391056
KBRD 110712Z AUTO 18007KT 1 1/2SM -SN BR OVC018 M04/M06 A2980 RMK AO2 P0001 T10391056
KBRD 110655Z AUTO 17006KT 1SM -SN BR VV015 M04/M06 A2981 RMK AO2 P0000 T10391056
KBRD 110653Z AUTO 16005KT 3/4SM -SN BR VV014 M04/M06 A2981 RMK AO2 SLP112 P0004 T10391056
KBRD 110553Z AUTO 18007KT 3/4SM -SN BR VV013 M04/M06 A2986 RMK AO2 SNB00 SLP132 P0001 60001 T10441061 11039 21072 410171089 56029
KBRD 110536Z AUTO 19005KT 1SM -SN BR OVC021 M04/M06 A2987 RMK AO2 SNB00 P0000 T10441061
KBRD 110526Z AUTO 18005KT 1 3/4SM -SN OVC029 M04/M07 A2987 RMK AO2 SNB00 P0000 T10391067
KBRD 110523Z AUTO 18005KT 2SM -SN OVC033 M04/M07 A2987 RMK AO2 SNB00 P0000 T10391067
KBRD 110453Z AUTO 16003KT 9SM OVC060 M04/M07 A2988 RMK AO2 SLP137 T10391067
KBRD 110353Z AUTO 00000KT 10SM OVC070 M05/M08 A2993 RMK AO2 SLP155 T10501078
KBRD 110253Z AUTO 00000KT 9SM SCT075 M07/M09 A2995 RMK AO2 SLP165 T10671089 56017
KBRD 110153Z AUTO 00000KT 9SM CLR M07/M09 A2996 RMK AO2 SLP167 T10721094
KBRD 110053Z AUTO 21003KT 7SM CLR M07/M10 A2998 RMK AO2 SLP175 T10671100
KBRD 102353Z AUTO 00000KT 10SM CLR M05/M09 A3000 RMK AO2 SLP181 T10501089 11017 21061 50001
KBRD 102253Z AUTO 00000KT 10SM CLR M04/M09 A3001 RMK AO2 SLP183 T10441089
KBRD 102153Z AUTO 28004KT 10SM CLR M02/M08 A3001 RMK AO2 SLP181 T10221083
KBRD 102053Z AUTO 28007KT 10SM CLR M02/M08 A3000 RMK AO2 SLP179 T10171083 53001
KBRD 101953Z AUTO 26007KT 10SM FEW023 OVC085 M02/M08 A2998 RMK AO2 SLP174 T10221083
KBRD 101853Z AUTO 32007KT 280V360 10SM FEW019 BKN090 M02/M08 A2999 RMK AO2 SLP177 T10221083
KBRD 101810Z AUTO 33005KT 10SM SCT018 BKN090 M03/M09 A2999 RMK AO2 T10331089
KBRD 101753Z AUTO 34009KT 10SM OVC018 M03/M09 A3000 RMK AO2 SLP181 T10331089 11033 21044 51018
KBRD 101653Z AUTO 01009KT 10SM OVC017 M04/M09 A2998 RMK AO2 SLP176 T10391089
KBRD 101553Z AUTO 32010KT 10SM OVC016 M04/M08 A2998 RMK AO2 SLP175 T10391083
KBRD 101453Z AUTO 32008KT 10SM OVC015 M04/M08 A2995 RMK AO2 SLP162 T10441078 51022
KBRD 101353Z AUTO 33008KT 10SM OVC013 M04/M07 A2992 RMK AO2 SLP153 T10391072
KBRD 101253Z AUTO 32008KT 10SM OVC014 M04/M07 A2991 RMK AO2 SLP148 T10441072
KBRD 101240Z AUTO 31007KT 10SM OVC014 M04/M07 A2989 RMK AO2 T10441072
KBRD 101153Z AUTO 32008KT 10SM OVC018 M04/M07 A2988 RMK AO2 SLP138 T10441072 11039 21089 51022
KBRD 101053Z AUTO 35009KT 10SM OVC024 M04/M07 A2986 RMK AO2 SLP133 T10441072
KBRD 100953Z AUTO 33008KT 10SM OVC023 M05/M08 A2983 RMK AO2 SLP122 T10501078
KBRD 100853Z AUTO 28006KT 10SM OVC021 M06/M08 A2981 RMK AO2 SLP116 T10561083 53015
KBRD 100753Z AUTO 00000KT 10SM OVC022 M07/M09 A2978 RMK AO2 SLP107 T10671094
KBRD 100701Z AUTO 00000KT 10SM BKN028 M08/M11 A2978 RMK AO2 T10831106
KBRD 100653Z AUTO 00000KT 10SM FEW021 BKN030 M08/M11 A2977 RMK AO2 SLP106 T10831106
KBRD 100553Z AUTO 20003KT 10SM CLR M08/M11 A2976 RMK AO2 SLP102 T10781106 11056 21083 410561094 56022
KBRD 100453Z AUTO 18004KT 10SM CLR M08/M11 A2977 RMK AO2 SLP105 T10831106
KBRD 100353Z AUTO 19006KT 10SM SCT023 M07/M11 A2979 RMK AO2 SLP112 T10671106
KBRD 100313Z AUTO 18005KT 10SM BKN024 BKN080 M06/M11 A2983 RMK AO2 T10611106
KBRD 100253Z AUTO 20007KT 10SM BKN080 M06/M11 A2983 RMK AO2 SLP124 T10611106 56027
KBRD 100153Z AUTO 21011KT 10SM BKN080 M06/M11 A2984 RMK AO2 SLP128 T10561111